sensor_id;sensor_type;location;lat;lon;timestamp;pressure;altitude;pressure_sealevel;temperature;humidity
14612;BME280;7392;52.078;11.650;2023-04-07T00:00:14;101159.84;;;1.73;80.56
14612;BME280;7392;52.078;11.650;2023-04-07T00:02:44;101163.16;;;1.68;81.10
14612;BME280;7392;52.078;11.650;2023-04-07T00:05:12;101150.78;;;1.64;81.05
14612;BME280;7392;52.078;11.650;2023-04-07T00:07:40;101138.44;;;1.62;81.73
14612;BME280;7392;52.078;11.650;2023-04-07T00:10:21;101152.38;;;1.61;81.67
14612;BME280;7392;52.078;11.650;2023-04-07T00:12:49;101146.13;;;1.57;81.80
14612;BME280;7392;52.078;11.650;2023-04-07T00:15:17;101149.50;;;1.55;81.32
14612;BME280;7392;52.078;11.650;2023-04-07T00:17:46;101145.84;;;1.51;81.62
14612;BME280;7392;52.078;11.650;2023-04-07T00:20:14;101146.63;;;1.48;81.80
14612;BME280;7392;52.078;11.650;2023-04-07T00:22:42;101139.59;;;1.47;82.23
14612;BME280;7392;52.078;11.650;2023-04-07T00:25:10;101144.78;;;1.46;82.27
14612;BME280;7392;52.078;11.650;2023-04-07T00:27:37;101142.97;;;1.45;82.65
14612;BME280;7392;52.078;11.650;2023-04-07T00:30:06;101136.78;;;1.43;82.12
14612;BME280;7392;52.078;11.650;2023-04-07T00:32:34;101138.53;;;1.42;82.78
14612;BME280;7392;52.078;11.650;2023-04-07T00:35:05;101140.25;;;1.42;82.77
14612;BME280;7392;52.078;11.650;2023-04-07T00:37:33;101135.78;;;1.39;82.46
14612;BME280;7392;52.078;11.650;2023-04-07T00:40:01;101133.97;;;1.38;82.83
14612;BME280;7392;52.078;11.650;2023-04-07T00:42:29;101127.78;;;1.36;82.59
14612;BME280;7392;52.078;11.650;2023-04-07T00:44:57;101123.22;;;1.30;82.38
14612;BME280;7392;52.078;11.650;2023-04-07T00:47:25;101121.47;;;1.31;82.65
14612;BME280;7392;52.078;11.650;2023-04-07T00:49:53;101133.59;;;1.29;82.85
14612;BME280;7392;52.078;11.650;2023-04-07T00:52:23;101118.63;;;1.25;82.78
14612;BME280;7392;52.078;11.650;2023-04-07T00:54:54;101117.63;;;1.23;82.63
14612;BME280;7392;52.078;11.650;2023-04-07T00:57:22;101114.91;;;1.20;82.86
14612;BME280;7392;52.078;11.650;2023-04-07T00:59:51;101112.97;;;1.16;82.80
14612;BME280;7392;52.078;11.650;2023-04-07T01:02:23;101114.66;;;1.14;83.09
14612;BME280;7392;52.078;11.650;2023-04-07T01:04:58;101110.13;;;1.09;82.82
14612;BME280;7392;52.078;11.650;2023-04-07T01:07:38;101107.38;;;1.06;83.17
14612;BME280;7392;52.078;11.650;2023-04-07T01:10:11;101108.06;;;1.02;83.44
14612;BME280;7392;52.078;11.650;2023-04-07T01:12:53;101103.47;;;0.97;83.34
14612;BME280;7392;52.078;11.650;2023-04-07T01:15:26;101101.63;;;0.94;83.30
14612;BME280;7392;52.078;11.650;2023-04-07T01:18:00;101104.13;;;0.91;83.39
14612;BME280;7392;52.078;11.650;2023-04-07T01:20:33;101103.03;;;0.86;83.51
14612;BME280;7392;52.078;11.650;2023-04-07T01:23:06;101102.88;;;0.83;83.82
14612;BME280;7392;52.078;11.650;2023-04-07T01:26:06;101094.69;;;0.75;84.06
14612;BME280;7392;52.078;11.650;2023-04-07T01:29:03;101116.53;;;0.76;84.36
14612;BME280;7392;52.078;11.650;2023-04-07T01:31:36;101103.31;;;0.72;84.29
14612;BME280;7392;52.078;11.650;2023-04-07T01:34:08;101099.75;;;0.70;84.50
14612;BME280;7392;52.078;11.650;2023-04-07T01:36:37;101106.69;;;0.70;84.78
14612;BME280;7392;52.078;11.650;2023-04-07T01:39:05;101100.50;;;0.68;84.56
14612;BME280;7392;52.078;11.650;2023-04-07T01:41:34;101097.81;;;0.66;84.62
14612;BME280;7392;52.078;11.650;2023-04-07T01:44:05;101095.06;;;0.63;84.46
14612;BME280;7392;52.078;11.650;2023-04-07T01:46:35;101098.50;;;0.62;84.91
14612;BME280;7392;52.078;11.650;2023-04-07T01:49:17;101093.16;;;0.59;85.23
14612;BME280;7392;52.078;11.650;2023-04-07T01:51:46;101108.00;;;0.60;85.50
14612;BME280;7392;52.078;11.650;2023-04-07T01:54:17;101105.47;;;0.62;85.43
14612;BME280;7392;52.078;11.650;2023-04-07T01:56:44;101105.47;;;0.62;84.66
14612;BME280;7392;52.078;11.650;2023-04-07T01:59:12;101103.81;;;0.64;84.80
14612;BME280;7392;52.078;11.650;2023-04-07T02:01:42;101096.84;;;0.64;84.38
14612;BME280;7392;52.078;11.650;2023-04-07T02:04:11;101098.59;;;0.64;84.57
14612;BME280;7392;52.078;11.650;2023-04-07T02:06:44;101100.28;;;0.63;84.46
14612;BME280;7392;52.078;11.650;2023-04-07T02:09:19;101102.91;;;0.63;84.40
14612;BME280;7392;52.078;11.650;2023-04-07T02:11:48;101102.84;;;0.62;84.37
14612;BME280;7392;52.078;11.650;2023-04-07T02:14:18;101098.44;;;0.61;84.29
14612;BME280;7392;52.078;11.650;2023-04-07T02:17:02;101095.75;;;0.59;84.55
14612;BME280;7392;52.078;11.650;2023-04-07T02:19:30;101093.94;;;0.58;84.33
14612;BME280;7392;52.078;11.650;2023-04-07T02:22:01;101087.78;;;0.56;84.66
14612;BME280;7392;52.078;11.650;2023-04-07T02:24:29;101092.03;;;0.54;84.68
14612;BME280;7392;52.078;11.650;2023-04-07T02:26:57;101083.25;;;0.52;85.16
14612;BME280;7392;52.078;11.650;2023-04-07T02:29:26;101088.41;;;0.50;85.18
14612;BME280;7392;52.078;11.650;2023-04-07T02:31:55;101085.72;;;0.49;84.73
14612;BME280;7392;52.078;11.650;2023-04-07T02:34:24;101083.03;;;0.47;85.52
14612;BME280;7392;52.078;11.650;2023-04-07T02:36:51;101081.19;;;0.45;85.58
14612;BME280;7392;52.078;11.650;2023-04-07T02:39:19;101083.66;;;0.42;85.58
14612;BME280;7392;52.078;11.650;2023-04-07T02:41:47;101093.97;;;0.39;85.52
14612;BME280;7392;52.078;11.650;2023-04-07T02:44:15;101081.69;;;0.36;85.98
14612;BME280;7392;52.078;11.650;2023-04-07T02:46:42;101084.22;;;0.34;86.00
14612;BME280;7392;52.078;11.650;2023-04-07T02:49:10;101085.84;;;0.32;86.33
14612;BME280;7392;52.078;11.650;2023-04-07T02:51:39;101084.09;;;0.31;86.28
14612;BME280;7392;52.078;11.650;2023-04-07T02:54:07;101090.06;;;0.29;85.81
14612;BME280;7392;52.078;11.650;2023-04-07T02:56:34;101087.34;;;0.26;86.13
14612;BME280;7392;52.078;11.650;2023-04-07T02:59:02;101083.66;;;0.22;85.96
14612;BME280;7392;52.078;11.650;2023-04-07T03:01:34;101093.22;;;0.22;86.08
14612;BME280;7392;52.078;11.650;2023-04-07T03:04:02;101088.78;;;0.19;86.17
14612;BME280;7392;52.078;11.650;2023-04-07T03:06:30;101085.16;;;0.17;86.28
14612;BME280;7392;52.078;11.650;2023-04-07T03:09:08;101089.44;;;0.15;86.21
14612;BME280;7392;52.078;11.650;2023-04-07T03:11:36;101088.47;;;0.13;86.71
14612;BME280;7392;52.078;11.650;2023-04-07T03:14:04;101087.44;;;0.09;86.31
14612;BME280;7392;52.078;11.650;2023-04-07T03:16:34;101088.25;;;0.08;86.60
14612;BME280;7392;52.078;11.650;2023-04-07T03:19:06;101074.16;;;0.05;86.69
14612;BME280;7392;52.078;11.650;2023-04-07T03:21:38;101076.72;;;0.03;86.94
14612;BME280;7392;52.078;11.650;2023-04-07T03:24:08;101080.16;;;0.02;87.15
14612;BME280;7392;52.078;11.650;2023-04-07T03:26:36;101090.53;;;0.01;86.73
14612;BME280;7392;52.078;11.650;2023-04-07T03:29:09;101082.56;;;-0.03;87.18
14612;BME280;7392;52.078;11.650;2023-04-07T03:31:40;101077.25;;;-0.04;87.73
14612;BME280;7392;52.078;11.650;2023-04-07T03:34:08;101086.75;;;-0.06;87.88
14612;BME280;7392;52.078;11.650;2023-04-07T03:36:37;101087.47;;;-0.09;88.05
14612;BME280;7392;52.078;11.650;2023-04-07T03:39:04;101083.03;;;-0.11;88.11
14612;BME280;7392;52.078;11.650;2023-04-07T03:41:33;101084.59;;;-0.15;88.14
14612;BME280;7392;52.078;11.650;2023-04-07T03:44:01;101085.34;;;-0.17;88.42
14612;BME280;7392;52.078;11.650;2023-04-07T03:46:30;101090.41;;;-0.21;88.23
14612;BME280;7392;52.078;11.650;2023-04-07T03:48:58;101092.06;;;-0.23;88.67
14612;BME280;7392;52.078;11.650;2023-04-07T03:51:28;101084.09;;;-0.26;88.17
14612;BME280;7392;52.078;11.650;2023-04-07T03:53:57;101079.63;;;-0.28;88.53
14612;BME280;7392;52.078;11.650;2023-04-07T03:56:39;101081.28;;;-0.30;88.48
14612;BME280;7392;52.078;11.650;2023-04-07T03:59:07;101088.06;;;-0.34;88.53
14612;BME280;7392;52.078;11.650;2023-04-07T04:01:42;101088.81;;;-0.36;88.69
14612;BME280;7392;52.078;11.650;2023-04-07T04:04:14;101096.47;;;-0.40;89.36
14612;BME280;7392;52.078;11.650;2023-04-07T04:06:42;101095.44;;;-0.43;89.24
14612;BME280;7392;52.078;11.650;2023-04-07T04:09:33;101096.28;;;-0.44;89.69
14612;BME280;7392;52.078;11.650;2023-04-07T04:12:03;101104.84;;;-0.47;89.77
14612;BME280;7392;52.078;11.650;2023-04-07T04:14:33;101099.47;;;-0.50;90.06
14612;BME280;7392;52.078;11.650;2023-04-07T04:17:02;101104.50;;;-0.54;89.83
14612;BME280;7392;52.078;11.650;2023-04-07T04:19:39;101106.94;;;-0.58;90.02
14612;BME280;7392;52.078;11.650;2023-04-07T04:22:23;101103.38;;;-0.60;90.82
14612;BME280;7392;52.078;11.650;2023-04-07T04:24:53;101103.22;;;-0.63;90.63
14612;BME280;7392;52.078;11.650;2023-04-07T04:27:24;101096.88;;;-0.68;90.90
14612;BME280;7392;52.078;11.650;2023-04-07T04:29:59;101095.91;;;-0.70;91.34
14612;BME280;7392;52.078;11.650;2023-04-07T04:32:41;101091.44;;;-0.72;91.02
14612;BME280;7392;52.078;11.650;2023-04-07T04:35:12;101095.69;;;-0.74;91.02
14612;BME280;7392;52.078;11.650;2023-04-07T04:37:49;101091.28;;;-0.76;91.57
14612;BME280;7392;52.078;11.650;2023-04-07T04:40:17;101097.34;;;-0.77;91.90
14612;BME280;7392;52.078;11.650;2023-04-07T04:42:48;101092.91;;;-0.78;91.76
14612;BME280;7392;52.078;11.650;2023-04-07T04:45:18;101101.63;;;-0.77;92.10
14612;BME280;7392;52.078;11.650;2023-04-07T04:47:47;101098.91;;;-0.80;91.62
14612;BME280;7392;52.078;11.650;2023-04-07T04:50:15;101103.13;;;-0.82;92.20
14612;BME280;7392;52.078;11.650;2023-04-07T04:52:45;101110.88;;;-0.84;91.92
14612;BME280;7392;52.078;11.650;2023-04-07T04:55:20;101108.13;;;-0.87;91.75
14612;BME280;7392;52.078;11.650;2023-04-07T04:57:49;101109.81;;;-0.87;92.12
14612;BME280;7392;52.078;11.650;2023-04-07T05:00:24;101103.56;;;-0.91;92.46
14612;BME280;7392;52.078;11.650;2023-04-07T05:02:58;101106.09;;;-0.92;92.37
14612;BME280;7392;52.078;11.650;2023-04-07T05:05:26;101108.69;;;-0.92;92.32
14612;BME280;7392;52.078;11.650;2023-04-07T05:07:55;101105.19;;;-0.93;92.13
14612;BME280;7392;52.078;11.650;2023-04-07T05:10:26;101115.56;;;-0.95;92.73
14612;BME280;7392;52.078;11.650;2023-04-07T05:12:55;101110.34;;;-0.95;92.81
14612;BME280;7392;52.078;11.650;2023-04-07T05:15:23;101112.06;;;-0.95;92.61
14612;BME280;7392;52.078;11.650;2023-04-07T05:17:50;101112.88;;;-0.96;92.93
14612;BME280;7392;52.078;11.650;2023-04-07T05:20:22;101118.09;;;-0.96;93.16
14612;BME280;7392;52.078;11.650;2023-04-07T05:22:50;101117.13;;;-0.98;93.39
14612;BME280;7392;52.078;11.650;2023-04-07T05:25:21;101118.09;;;-0.96;93.20
14612;BME280;7392;52.078;11.650;2023-04-07T05:27:52;101116.31;;;-0.97;93.73
14612;BME280;7392;52.078;11.650;2023-04-07T05:30:22;101115.41;;;-0.98;93.81
14612;BME280;7392;52.078;11.650;2023-04-07T05:32:51;101119.81;;;-0.97;93.42
14612;BME280;7392;52.078;11.650;2023-04-07T05:35:35;101129.34;;;-0.97;93.77
14612;BME280;7392;52.078;11.650;2023-04-07T05:38:03;101120.69;;;-0.96;93.71
14612;BME280;7392;52.078;11.650;2023-04-07T05:40:31;101129.44;;;-0.96;93.94
14612;BME280;7392;52.078;11.650;2023-04-07T05:43:03;101134.69;;;-0.94;94.03
14612;BME280;7392;52.078;11.650;2023-04-07T05:45:33;101126.06;;;-0.93;94.51
14612;BME280;7392;52.078;11.650;2023-04-07T05:48:01;101126.16;;;-0.91;94.05
14612;BME280;7392;52.078;11.650;2023-04-07T05:50:37;101129.66;;;-0.91;94.32
14612;BME280;7392;52.078;11.650;2023-04-07T05:53:09;101131.53;;;-0.88;94.59
14612;BME280;7392;52.078;11.650;2023-04-07T05:55:37;101125.56;;;-0.86;94.47
14612;BME280;7392;52.078;11.650;2023-04-07T05:58:07;101119.59;;;-0.83;95.09
14612;BME280;7392;52.078;11.650;2023-04-07T06:00:39;101128.47;;;-0.80;94.93
14612;BME280;7392;52.078;11.650;2023-04-07T06:03:12;101135.53;;;-0.77;95.38
14612;BME280;7392;52.078;11.650;2023-04-07T06:05:53;101129.75;;;-0.71;94.96
14612;BME280;7392;52.078;11.650;2023-04-07T06:08:21;101127.28;;;-0.68;95.81
14612;BME280;7392;52.078;11.650;2023-04-07T06:10:49;101133.69;;;-0.62;95.71
14612;BME280;7392;52.078;11.650;2023-04-07T06:13:17;101129.59;;;-0.57;96.22
14612;BME280;7392;52.078;11.650;2023-04-07T06:15:46;101132.53;;;-0.50;95.75
14612;BME280;7392;52.078;11.650;2023-04-07T06:18:14;101135.44;;;-0.44;96.14
14612;BME280;7392;52.078;11.650;2023-04-07T06:20:41;101132.38;;;-0.35;96.25
14612;BME280;7392;52.078;11.650;2023-04-07T06:23:09;101139.75;;;-0.27;96.31
14612;BME280;7392;52.078;11.650;2023-04-07T06:25:37;101134.94;;;-0.17;96.46
14612;BME280;7392;52.078;11.650;2023-04-07T06:28:05;101136.28;;;-0.08;96.35
14612;BME280;7392;52.078;11.650;2023-04-07T06:30:33;101142.00;;;0.03;96.07
14612;BME280;7392;52.078;11.650;2023-04-07T06:33:06;101140.72;;;0.13;95.79
14612;BME280;7392;52.078;11.650;2023-04-07T06:35:33;101142.94;;;0.23;95.36
14612;BME280;7392;52.078;11.650;2023-04-07T06:38:01;101141.81;;;0.36;94.78
14612;BME280;7392;52.078;11.650;2023-04-07T06:40:30;101151.00;;;0.47;94.51
14612;BME280;7392;52.078;11.650;2023-04-07T06:42:58;101148.94;;;0.60;93.87
14612;BME280;7392;52.078;11.650;2023-04-07T06:45:35;101139.13;;;0.73;93.51
14612;BME280;7392;52.078;11.650;2023-04-07T06:48:03;101143.13;;;0.86;92.68
14612;BME280;7392;52.078;11.650;2023-04-07T06:50:32;101147.22;;;1.01;91.98
14612;BME280;7392;52.078;11.650;2023-04-07T06:53:00;101134.69;;;1.13;91.42
14612;BME280;7392;52.078;11.650;2023-04-07T06:55:27;101143.06;;;1.25;91.48
14612;BME280;7392;52.078;11.650;2023-04-07T06:57:55;101147.06;;;1.38;90.73
14612;BME280;7392;52.078;11.650;2023-04-07T07:00:23;101148.41;;;1.49;89.43
14612;BME280;7392;52.078;11.650;2023-04-07T07:02:52;101135.88;;;1.63;89.17
14612;BME280;7392;52.078;11.650;2023-04-07T07:05:20;101137.16;;;1.73;88.63
14612;BME280;7392;52.078;11.650;2023-04-07T07:07:50;101147.28;;;1.86;87.96
14612;BME280;7392;52.078;11.650;2023-04-07T07:10:18;101145.00;;;1.96;87.52
14612;BME280;7392;52.078;11.650;2023-04-07T07:12:47;101145.47;;;2.08;87.60
14612;BME280;7392;52.078;11.650;2023-04-07T07:15:16;101144.19;;;2.19;86.80
14612;BME280;7392;52.078;11.650;2023-04-07T07:17:43;101146.44;;;2.33;87.24
14612;BME280;7392;52.078;11.650;2023-04-07T07:20:11;101152.06;;;2.43;86.48
14612;BME280;7392;52.078;11.650;2023-04-07T07:22:39;101151.63;;;2.55;86.73
14612;BME280;7392;52.078;11.650;2023-04-07T07:25:09;101153.81;;;2.67;85.82
14612;BME280;7392;52.078;11.650;2023-04-07T07:27:37;101149.00;;;2.79;86.10
14612;BME280;7392;52.078;11.650;2023-04-07T07:30:06;101152.97;;;2.92;85.81
14612;BME280;7392;52.078;11.650;2023-04-07T07:32:34;101149.91;;;3.04;85.08
14612;BME280;7392;52.078;11.650;2023-04-07T07:35:03;101154.69;;;3.17;84.78
14612;BME280;7392;52.078;11.650;2023-04-07T07:37:31;101154.28;;;3.31;85.02
14612;BME280;7392;52.078;11.650;2023-04-07T07:39:58;101145.88;;;3.41;83.93
14612;BME280;7392;52.078;11.650;2023-04-07T07:42:28;101149.88;;;3.55;83.95
14612;BME280;7392;52.078;11.650;2023-04-07T07:44:56;101150.25;;;3.68;83.99
14612;BME280;7392;52.078;11.650;2023-04-07T07:47:24;101155.16;;;3.84;83.63
14612;BME280;7392;52.078;11.650;2023-04-07T07:49:52;101151.28;;;4.00;82.72
14612;BME280;7392;52.078;11.650;2023-04-07T07:52:20;101157.91;;;4.16;82.95
14612;BME280;7392;52.078;11.650;2023-04-07T07:54:49;101161.97;;;4.35;82.03
14612;BME280;7392;52.078;11.650;2023-04-07T07:57:17;101163.38;;;4.54;80.87
14612;BME280;7392;52.078;11.650;2023-04-07T07:59:46;101156.94;;;4.73;79.94
14612;BME280;7392;52.078;11.650;2023-04-07T08:02:13;101163.56;;;4.91;79.75
14612;BME280;7392;52.078;11.650;2023-04-07T08:04:41;101157.06;;;5.10;78.92
14612;BME280;7392;52.078;11.650;2023-04-07T08:07:09;101161.06;;;5.29;77.72
14612;BME280;7392;52.078;11.650;2023-04-07T08:09:38;101162.34;;;5.44;76.00
14612;BME280;7392;52.078;11.650;2023-04-07T08:12:05;101161.97;;;5.64;74.67
14612;BME280;7392;52.078;11.650;2023-04-07T08:14:33;101160.66;;;5.83;73.76
14612;BME280;7392;52.078;11.650;2023-04-07T08:17:02;101160.28;;;6.04;72.81
14612;BME280;7392;52.078;11.650;2023-04-07T08:19:30;101163.50;;;6.29;72.02
14612;BME280;7392;52.078;11.650;2023-04-07T08:21:58;101160.53;;;6.54;71.91
14612;BME280;7392;52.078;11.650;2023-04-07T08:24:27;101160.16;;;6.80;71.67
14612;BME280;7392;52.078;11.650;2023-04-07T08:26:55;101165.88;;;7.03;70.36
14612;BME280;7392;52.078;11.650;2023-04-07T08:29:23;101160.13;;;7.24;69.19
14612;BME280;7392;52.078;11.650;2023-04-07T08:31:50;101161.34;;;7.45;67.35
14612;BME280;7392;52.078;11.650;2023-04-07T08:34:20;101162.63;;;7.70;66.44
14612;BME280;7392;52.078;11.650;2023-04-07T08:36:47;101170.13;;;7.99;66.36
14612;BME280;7392;52.078;11.650;2023-04-07T08:39:15;101168.78;;;8.26;65.10
14612;BME280;7392;52.078;11.650;2023-04-07T08:41:43;101170.88;;;8.50;61.91
14612;BME280;7392;52.078;11.650;2023-04-07T08:44:14;101166.81;;;8.76;60.87
14612;BME280;7392;52.078;11.650;2023-04-07T08:48:15;101164.63;;;9.20;59.19
14612;BME280;7392;52.078;11.650;2023-04-07T08:50:44;101164.84;;;9.40;55.95
14612;BME280;7392;52.078;11.650;2023-04-07T08:53:13;101167.56;;;9.50;53.34
14612;BME280;7392;52.078;11.650;2023-04-07T08:55:44;101165.09;;;9.69;53.16
14612;BME280;7392;52.078;11.650;2023-04-07T08:58:13;101168.75;;;9.88;52.47
14612;BME280;7392;52.078;11.650;2023-04-07T09:00:42;101170.66;;;10.09;52.28
14612;BME280;7392;52.078;11.650;2023-04-07T09:03:12;101163.78;;;10.33;51.92
14612;BME280;7392;52.078;11.650;2023-04-07T09:05:42;101173.59;;;10.54;49.82
14612;BME280;7392;52.078;11.650;2023-04-07T09:08:11;101183.44;;;10.73;49.06
14612;BME280;7392;52.078;11.650;2023-04-07T09:10:38;101175.56;;;10.92;49.03
14612;BME280;7392;52.078;11.650;2023-04-07T09:13:06;101179.16;;;11.12;48.62
14612;BME280;7392;52.078;11.650;2023-04-07T09:15:34;101170.31;;;11.30;46.74
14612;BME280;7392;52.078;11.650;2023-04-07T09:18:04;101173.88;;;11.49;46.87
14612;BME280;7392;52.078;11.650;2023-04-07T09:20:54;101173.00;;;11.75;47.10
14612;BME280;7392;52.078;11.650;2023-04-07T09:23:30;101174.78;;;12.04;47.72
14612;BME280;7392;52.078;11.650;2023-04-07T09:26:00;101173.84;;;12.31;48.07
14612;BME280;7392;52.078;11.650;2023-04-07T09:28:39;101172.91;;;12.50;46.47
14612;BME280;7392;52.078;11.650;2023-04-07T09:31:07;101167.47;;;12.72;46.03
14612;BME280;7392;52.078;11.650;2023-04-07T09:33:35;101164.72;;;12.92;45.40
14612;BME280;7392;52.078;11.650;2023-04-07T09:36:05;101158.44;;;13.02;41.65
14612;BME280;7392;52.078;11.650;2023-04-07T09:38:34;101163.78;;;13.02;41.18
14612;BME280;7392;52.078;11.650;2023-04-07T09:41:07;101158.44;;;13.05;40.95
14612;BME280;7392;52.078;11.650;2023-04-07T09:43:36;101160.13;;;13.20;42.22
14612;BME280;7392;52.078;11.650;2023-04-07T09:46:10;101146.66;;;13.43;43.45
14612;BME280;7392;52.078;11.650;2023-04-07T09:48:38;101155.34;;;13.70;43.76
14612;BME280;7392;52.078;11.650;2023-04-07T09:51:09;101148.03;;;13.89;42.41
14612;BME280;7392;52.078;11.650;2023-04-07T09:53:42;101139.75;;;14.15;42.75
14612;BME280;7392;52.078;11.650;2023-04-07T09:56:11;101146.69;;;14.35;42.48
14612;BME280;7392;52.078;11.650;2023-04-07T09:58:42;101142.88;;;14.53;43.07
14612;BME280;7392;52.078;11.650;2023-04-07T10:01:11;101144.56;;;14.66;43.14
14612;BME280;7392;52.078;11.650;2023-04-07T10:03:39;101149.88;;;14.68;41.30
14612;BME280;7392;52.078;11.650;2023-04-07T10:06:09;101144.59;;;14.62;39.08
14612;BME280;7392;52.078;11.650;2023-04-07T10:08:38;101143.75;;;14.56;38.83
14612;BME280;7392;52.078;11.650;2023-04-07T10:11:07;101152.66;;;14.57;39.60
14612;BME280;7392;52.078;11.650;2023-04-07T10:13:38;101154.41;;;14.63;39.95
14612;BME280;7392;52.078;11.650;2023-04-07T10:16:07;101160.53;;;14.72;40.19
14612;BME280;7392;52.078;11.650;2023-04-07T10:18:35;101162.16;;;14.83;39.99
14612;BME280;7392;52.078;11.650;2023-04-07T10:21:06;101154.91;;;14.91;40.09
14612;BME280;7392;52.078;11.650;2023-04-07T10:23:47;101156.66;;;14.95;39.28
14612;BME280;7392;52.078;11.650;2023-04-07T10:26:18;101153.88;;;15.01;39.14
14612;BME280;7392;52.078;11.650;2023-04-07T10:28:51;101155.50;;;15.11;39.85
14612;BME280;7392;52.078;11.650;2023-04-07T10:31:21;101155.34;;;15.25;40.08
14612;BME280;7392;52.078;11.650;2023-04-07T10:33:50;101153.47;;;15.30;39.70
14612;BME280;7392;52.078;11.650;2023-04-07T10:36:19;101155.13;;;15.38;39.50
14612;BME280;7392;52.078;11.650;2023-04-07T10:39:20;101154.91;;;15.53;39.45
14612;BME280;7392;52.078;11.650;2023-04-07T10:41:49;101158.19;;;15.69;39.46
14612;BME280;7392;52.078;11.650;2023-04-07T10:44:45;101159.59;;;15.92;39.13
14612;BME280;7392;52.078;11.650;2023-04-07T10:47:15;101151.28;;;16.07;38.11
14612;BME280;7392;52.078;11.650;2023-04-07T10:50:15;101143.09;;;16.16;37.70
14612;BME280;7392;52.078;11.650;2023-04-07T10:52:44;101152.69;;;16.28;38.49
14612;BME280;7392;52.078;11.650;2023-04-07T10:55:33;101154.28;;;16.38;38.76
14612;BME280;7392;52.078;11.650;2023-04-07T10:58:21;101143.44;;;16.43;37.31
14612;BME280;7392;52.078;11.650;2023-04-07T11:01:15;101155.06;;;16.45;36.70
14612;BME280;7392;52.078;11.650;2023-04-07T11:03:55;101158.59;;;16.47;36.59
14612;BME280;7392;52.078;11.650;2023-04-07T11:06:23;101153.16;;;16.50;36.04
14612;BME280;7392;52.078;11.650;2023-04-07T11:08:52;101157.41;;;16.60;36.13
14612;BME280;7392;52.078;11.650;2023-04-07T11:11:40;101151.06;;;16.64;35.77
14612;BME280;7392;52.078;11.650;2023-04-07T11:14:08;101153.50;;;16.75;35.52
14612;BME280;7392;52.078;11.650;2023-04-07T11:16:40;101146.97;;;16.90;36.15
14612;BME280;7392;52.078;11.650;2023-04-07T11:19:08;101149.34;;;17.04;36.82
14612;BME280;7392;52.078;11.650;2023-04-07T11:21:36;101151.03;;;17.10;35.99
14612;BME280;7392;52.078;11.650;2023-04-07T11:24:04;101152.47;;;17.23;36.15
14612;BME280;7392;52.078;11.650;2023-04-07T11:26:40;101138.09;;;17.27;35.59
14612;BME280;7392;52.078;11.650;2023-04-07T11:29:09;101150.53;;;17.30;34.92
14612;BME280;7392;52.078;11.650;2023-04-07T11:31:38;101139.66;;;17.36;34.72
14612;BME280;7392;52.078;11.650;2023-04-07T11:34:05;101145.59;;;17.49;35.37
14612;BME280;7392;52.078;11.650;2023-04-07T11:36:38;101140.81;;;17.62;35.45
14612;BME280;7392;52.078;11.650;2023-04-07T11:39:17;101137.91;;;17.71;34.72
14612;BME280;7392;52.078;11.650;2023-04-07T11:41:48;101147.50;;;17.80;34.68
14612;BME280;7392;52.078;11.650;2023-04-07T11:44:16;101142.00;;;17.86;34.50
14612;BME280;7392;52.078;11.650;2023-04-07T11:46:54;101132.84;;;17.94;34.43
14612;BME280;7392;52.078;11.650;2023-04-07T11:49:23;101138.22;;;17.94;33.68
14612;BME280;7392;52.078;11.650;2023-04-07T11:52:00;101136.25;;;18.01;33.56
14612;BME280;7392;52.078;11.650;2023-04-07T11:54:39;101139.56;;;18.11;33.53
14612;BME280;7392;52.078;11.650;2023-04-07T11:57:08;101138.44;;;18.20;33.60
14612;BME280;7392;52.078;11.650;2023-04-07T11:59:38;101139.00;;;18.31;34.09
14612;BME280;7392;52.078;11.650;2023-04-07T12:02:06;101130.66;;;18.42;34.43
14612;BME280;7392;52.078;11.650;2023-04-07T12:04:35;101141.38;;;18.43;33.13
14612;BME280;7392;52.078;11.650;2023-04-07T12:07:06;101143.03;;;18.47;33.62
14612;BME280;7392;52.078;11.650;2023-04-07T12:09:35;101147.56;;;18.45;33.24
14612;BME280;7392;52.078;11.650;2023-04-07T12:12:05;101146.00;;;18.38;33.10
14612;BME280;7392;52.078;11.650;2023-04-07T12:14:35;101149.47;;;18.42;32.94
14612;BME280;7392;52.078;11.650;2023-04-07T12:17:03;101152.38;;;18.34;32.85
14612;BME280;7392;52.078;11.650;2023-04-07T12:19:33;101156.06;;;18.30;33.21
14612;BME280;7392;52.078;11.650;2023-04-07T12:22:02;101154.44;;;18.24;33.30
14612;BME280;7392;52.078;11.650;2023-04-07T12:24:30;101151.03;;;18.18;32.97
14612;BME280;7392;52.078;11.650;2023-04-07T12:26:58;101152.03;;;18.13;32.77
14612;BME280;7392;52.078;11.650;2023-04-07T12:29:26;101139.44;;;18.16;32.74
14612;BME280;7392;52.078;11.650;2023-04-07T12:31:56;101152.75;;;18.20;32.75
14612;BME280;7392;52.078;11.650;2023-04-07T12:34:24;101145.72;;;18.16;32.89
14612;BME280;7392;52.078;11.650;2023-04-07T12:36:52;101154.75;;;18.12;32.75
14612;BME280;7392;52.078;11.650;2023-04-07T12:39:20;101154.34;;;18.27;32.89
14612;BME280;7392;52.078;11.650;2023-04-07T12:41:47;101158.28;;;18.47;32.76
14612;BME280;7392;52.078;11.650;2023-04-07T12:44:18;101154.16;;;18.65;32.21
14612;BME280;7392;52.078;11.650;2023-04-07T12:46:46;101159.09;;;18.80;32.00
14612;BME280;7392;52.078;11.650;2023-04-07T12:49:15;101147.75;;;19.00;32.09
14612;BME280;7392;52.078;11.650;2023-04-07T12:51:43;101149.34;;;19.08;31.30
14612;BME280;7392;52.078;11.650;2023-04-07T12:54:11;101149.63;;;19.27;31.88
14612;BME280;7392;52.078;11.650;2023-04-07T12:56:38;101155.31;;;19.46;32.02
14612;BME280;7392;52.078;11.650;2023-04-07T12:59:07;101152.41;;;19.52;32.21
14612;BME280;7392;52.078;11.650;2023-04-07T13:01:35;101158.63;;;19.54;31.21
14612;BME280;7392;52.078;11.650;2023-04-07T13:04:03;101155.88;;;19.55;31.11
14612;BME280;7392;52.078;11.650;2023-04-07T13:06:32;101159.66;;;19.50;30.53
14612;BME280;7392;52.078;11.650;2023-04-07T13:09:00;101162.91;;;19.61;31.14
14612;BME280;7392;52.078;11.650;2023-04-07T13:11:27;101166.72;;;19.82;31.32
14612;BME280;7392;52.078;11.650;2023-04-07T13:13:55;101165.31;;;19.97;31.43